| time (UTC) | temp F | wind direction | speed MPH | gust MPH | rain 1hr in | rain 24hr in | rain mn in | humidity % | barometer mb |
| 20260507124525 | 51 | 255 | 4.0 | 9.0 | 0.00 | 0.90 | 0.19 | 82 | 1005.3 |
| 20260507123024 | 50 | 240 | 3.0 | 8.0 | 0.00 | 0.90 | 0.19 | 86 | 1004.8 |
| 20260507121520 | 48 | 263 | 3.0 | 6.0 | 0.00 | 0.90 | 0.19 | 90 | 1005.1 |
| 20260507120019 | 48 | 263 | 2.0 | 7.0 | 0.00 | 0.90 | 0.19 | 90 | 1005.2 |
| 20260507114517 | 48 | 259 | 2.0 | 6.0 | 0.00 | 0.90 | 0.19 | 93 | 1005.7 |
| 20260507113023 | 47 | 258 | 3.0 | 6.0 | 0.00 | 0.90 | 0.19 | 94 | 1005.3 |
| 20260507111518 | 45 | 252 | 1.0 | 5.0 | 0.00 | 0.90 | 0.19 | 94 | 1005.6 |
| 20260507110015 | 46 | 267 | 1.0 | 5.0 | 0.00 | 0.90 | 0.19 | 95 | 1005.4 |
| 20260507104514 | 46 | 259 | 4.0 | 8.0 | 0.00 | 0.90 | 0.19 | 95 | 1005.4 |
| 20260507103012 | 46 | 267 | 3.0 | 6.0 | 0.00 | 0.90 | 0.19 | 95 | 1004.5 |
| 20260507101512 | 45 | 261 | 3.0 | 6.0 | 0.00 | 0.90 | 0.19 | 96 | 1004.9 |
| 20260507100015 | 45 | 282 | 5.0 | 7.0 | 0.00 | 0.90 | 0.19 | 95 | 1004.3 |
| 20260507094509 | 45 | 281 | 5.0 | 9.0 | 0.00 | 0.90 | 0.19 | 96 | 1004.5 |
| 20260507093014 | 45 | 290 | 4.0 | 11.0 | 0.00 | 0.90 | 0.19 | 96 | 1004.2 |
| 20260507091508 | 45 | 284 | 4.0 | 9.0 | 0.00 | 0.90 | 0.19 | 96 | 1004.8 |
| 20260507090010 | 45 | 281 | 4.0 | 8.0 | 0.00 | 0.90 | 0.19 | 96 | 1004.8 |
| 20260507084522 | 45 | 279 | 6.0 | 13.0 | 0.00 | 0.90 | 0.19 | 96 | 1004.5 |
| 20260507083005 | 45 | 311 | 8.0 | 14.0 | 0.00 | 0.90 | 0.19 | 96 | 1004.0 |
| 20260507081502 | 46 | 295 | 7.0 | 14.0 | 0.00 | 0.90 | 0.19 | 96 | 1003.9 |
| 20260507074608 | 46 | 260 | 6.0 | 10.0 | 0.01 | 0.90 | 0.19 | 96 | 1004.1 |
| 20260507073057 | 46 | 262 | 5.0 | 11.0 | 0.01 | 0.90 | 0.19 | 96 | 1003.9 |
| 20260507071605 | 47 | 286 | 7.0 | 13.0 | 0.01 | 0.90 | 0.19 | 96 | 1003.6 |
| 20260507070105 | 47 | 279 | 7.0 | 10.0 | 0.01 | 0.90 | 0.19 | 96 | 1003.8 |
| 20260507064556 | 47 | 308 | 7.0 | 13.0 | 0.03 | 0.89 | 0.18 | 96 | 1003.5 |
| 20260507063050 | 48 | 279 | 8.0 | 14.0 | 0.15 | 0.89 | 0.18 | 96 | 1003.7 |
| 20260507061549 | 48 | 288 | 6.0 | 11.0 | 0.18 | 0.89 | 0.18 | 96 | 1003.6 |
| 20260507060049 | 49 | 323 | 6.0 | 15.0 | 0.18 | 0.89 | 0.18 | 96 | 1002.9 |
| 20260507054606 | 49 | 271 | 6.0 | 18.0 | 0.15 | 0.86 | 0.15 | 96 | 1003.8 |
| 20260507053051 | 47 | 172 | 5.0 | 10.0 | 0.02 | 0.73 | 0.02 | 96 | 1003.6 |
| 20260507051547 | 47 | 140 | 4.0 | 8.0 | 0.00 | 0.71 | 0.00 | 96 | 1003.0 |
| 20260507050045 | 48 | 167 | 5.0 | 15.0 | 0.00 | 0.71 | 0.71 | 96 | 1003.0 |
| 20260507044539 | 48 | 161 | 8.0 | 19.0 | 0.00 | 0.71 | 0.71 | 96 | 1003.1 |
| 20260507043035 | 47 | 142 | 12.0 | 20.0 | 0.00 | 0.71 | 0.71 | 96 | 1002.8 |
| 20260507041534 | 47 | 164 | 12.0 | 21.0 | 0.00 | 0.71 | 0.71 | 96 | 1002.8 |
| 20260507040039 | 47 | 150 | 14.0 | 24.0 | 0.00 | 0.71 | 0.71 | 96 | 1003.0 |
| 20260507034531 | 47 | 122 | 14.0 | 22.0 | 0.01 | 0.71 | 0.71 | 96 | 1003.2 |
| 20260507033029 | 48 | 152 | 14.0 | 27.0 | 0.01 | 0.71 | 0.71 | 96 | 1003.4 |
| 20260507031528 | 48 | 173 | 17.0 | 29.0 | 0.01 | 0.71 | 0.71 | 96 | 1003.5 |
| 20260507030024 | 48 | 153 | 12.0 | 20.0 | 0.04 | 0.71 | 0.71 | 96 | 1003.7 |
| 20260507024522 | 48 | 153 | 8.0 | 13.0 | 0.05 | 0.70 | 0.70 | 96 | 1004.1 |
| 20260507023021 | 48 | 156 | 11.0 | 20.0 | 0.07 | 0.70 | 0.70 | 96 | 1004.3 |
| 20260507021523 | 48 | 130 | 13.0 | 19.0 | 0.10 | 0.70 | 0.70 | 96 | 1004.7 |
| 20260507020017 | 48 | 183 | 10.0 | 21.0 | 0.11 | 0.67 | 0.67 | 95 | 1004.9 |
| 20260507014517 | 48 | 144 | 11.0 | 23.0 | 0.11 | 0.64 | 0.64 | 96 | 1004.8 |
| 20260507013013 | 48 | 134 | 11.0 | 23.0 | 0.18 | 0.63 | 0.63 | 95 | 1005.0 |
| 20260507011514 | 48 | 130 | 14.0 | 23.0 | 0.21 | 0.60 | 0.60 | 95 | 1005.3 |
| 20260507010016 | 49 | 121 | 14.0 | 23.0 | 0.26 | 0.56 | 0.56 | 96 | 1005.5 |
| 20260507004508 | 49 | 151 | 13.0 | 24.0 | 0.26 | 0.52 | 0.52 | 95 | 1005.8 |
| 20260507003007 | 49 | 128 | 16.0 | 26.0 | 0.23 | 0.45 | 0.45 | 95 | 1005.9 |
| 20260507001506 | 49 | 155 | 14.0 | 21.0 | 0.20 | 0.39 | 0.39 | 95 | 1005.9 |
| 20260507000007 | 49 | 148 | 13.0 | 22.0 | 0.15 | 0.30 | 0.30 | 95 | 1006.3 |
| 20260506234504 | 49 | 138 | 15.0 | 23.0 | 0.12 | 0.26 | 0.26 | 95 | 1006.2 |
| 20260506233041 | 49 | 129 | 9.0 | 23.0 | 0.09 | 0.22 | 0.22 | 95 | 1006.4 |
| 20260506231537 | 49 | 149 | 9.0 | 19.0 | 0.08 | 0.19 | 0.19 | 95 | 1006.6 |
| 20260506230035 | 48 | 123 | 9.0 | 21.0 | 0.05 | 0.15 | 0.15 | 95 | 1006.8 |
| 20260506224535 | 49 | 132 | 11.0 | 18.0 | 0.06 | 0.14 | 0.14 | 95 | 1006.7 |
| 20260506223034 | 49 | 153 | 10.0 | 20.0 | 0.08 | 0.13 | 0.13 | 95 | 1006.9 |
| 20260506221541 | 50 | 205 | 11.0 | 25.0 | 0.08 | 0.11 | 0.11 | 95 | 1006.9 |
| 20260506220033 | 50 | 120 | 12.0 | 19.0 | 0.08 | 0.10 | 0.10 | 95 | 1007.1 |
| 20260506214530 | 49 | 130 | 11.0 | 18.0 | 0.06 | 0.07 | 0.07 | 95 | 1007.6 |
| 20260506213030 | 49 | 159 | 8.0 | 13.0 | 0.05 | 0.05 | 0.05 | 94 | 1007.9 |
| 20260506211539 | 49 | 145 | 10.0 | 16.0 | 0.03 | 0.03 | 0.03 | 94 | 1007.8 |
| 20260506210034 | 48 | 141 | 12.0 | 18.0 | 0.02 | 0.02 | 0.02 | 93 | 1008.2 |
| 20260506204531 | 49 | 126 | 12.0 | 24.0 | 0.01 | 0.01 | 0.01 | 92 | 1008.0 |
| 20260506203025 | 51 | 138 | 17.0 | 25.0 | 0.00 | 0.00 | 0.00 | 91 | 1007.8 |
| 20260506201534 | 50 | 154 | 10.0 | 16.0 | 0.00 | 0.00 | 0.00 | 90 | 1008.1 |
| 20260506200029 | 51 | 167 | 10.0 | 20.0 | 0.00 | 0.00 | 0.00 | 90 | 1007.4 |
| 20260506194524 | 51 | 159 | 11.0 | 19.0 | 0.00 | 0.00 | 0.00 | 89 | 1007.7 |
| 20260506193033 | 51 | 162 | 11.0 | 20.0 | 0.00 | 0.00 | 0.00 | 89 | 1007.9 |
| 20260506191521 | 51 | 137 | 11.0 | 21.0 | 0.00 | 0.00 | 0.00 | 89 | 1007.7 |
| 20260506190020 | 52 | 144 | 13.0 | 21.0 | 0.00 | 0.00 | 0.00 | 87 | 1008.1 |
| 20260506184517 | 52 | 140 | 10.0 | 18.0 | 0.00 | 0.00 | 0.00 | 89 | 1008.2 |
| 20260506183017 | 51 | 146 | 11.0 | 18.0 | 0.00 | 0.00 | 0.00 | 89 | 1008.2 |
| 20260506181533 | 51 | 160 | 9.0 | 21.0 | 0.00 | 0.00 | 0.00 | 89 | 1008.3 |
| 20260506180014 | 51 | 131 | 10.0 | 16.0 | 0.00 | 0.00 | 0.00 | 89 | 1008.5 |
| 20260506174513 | 51 | 179 | 11.0 | 21.0 | 0.00 | 0.00 | 0.00 | 89 | 1008.7 |
| 20260506173013 | 51 | 139 | 12.0 | 22.0 | 0.00 | 0.00 | 0.00 | 89 | 1008.9 |
| 20260506171515 | 52 | 175 | 12.0 | 24.0 | 0.00 | 0.00 | 0.00 | 88 | 1009.1 |
| 20260506170011 | 53 | 148 | 13.0 | 26.0 | 0.00 | 0.00 | 0.00 | 88 | 1009.1 |
| 20260506164511 | 53 | 165 | 17.0 | 31.0 | 0.00 | 0.00 | 0.00 | 87 | 1009.2 |
| 20260506163015 | 53 | 153 | 17.0 | 29.0 | 0.00 | 0.00 | 0.00 | 88 | 1009.6 |
| 20260506161510 | 53 | 142 | 17.0 | 29.0 | 0.00 | 0.00 | 0.00 | 87 | 1009.8 |
| 20260506160008 | 54 | 134 | 13.0 | 23.0 | 0.00 | 0.00 | 0.00 | 88 | 1009.8 |
| 20260506154505 | 53 | 165 | 12.0 | 21.0 | 0.00 | 0.00 | 0.00 | 89 | 1009.8 |
| 20260506153004 | 52 | 142 | 11.0 | 25.0 | 0.00 | 0.00 | 0.00 | 88 | 1009.5 |
| 20260506151507 | 52 | 133 | 13.0 | 21.0 | 0.00 | 0.00 | 0.00 | 89 | 1009.4 |
| 20260506150010 | 52 | 140 | 13.0 | 26.0 | 0.00 | 0.00 | 0.00 | 90 | 1009.8 |
| 20260506144501 | 51 | 149 | 16.0 | 25.0 | 0.00 | 0.00 | 0.00 | 91 | 1010.1 |
| 20260506143002 | 51 | 140 | 15.0 | 24.0 | 0.00 | 0.00 | 0.00 | 91 | 1010.3 |
| 20260506141501 | 51 | 141 | 14.0 | 24.0 | 0.00 | 0.00 | 0.00 | 92 | 1010.3 |
| 20260506140003 | 51 | 146 | 12.0 | 23.0 | 0.00 | 0.00 | 0.00 | 92 | 1010.2 |
| 20260506134600 | 51 | 131 | 9.0 | 19.0 | 0.00 | 0.00 | 0.00 | 91 | 1010.1 |
| 20260506133127 | 51 | 157 | 13.0 | 20.0 | 0.00 | 0.00 | 0.00 | 91 | 1009.9 |
| 20260506131600 | 52 | 166 | 13.0 | 21.0 | 0.00 | 0.00 | 0.00 | 90 | 1010.1 |
| 20260506130121 | 52 | 142 | 11.0 | 19.0 | 0.00 | 0.00 | 0.00 | 90 | 1010.1 |